sensor_id;sensor_type;location;lat;lon;timestamp;pressure;altitude;pressure_sealevel;temperature;humidity
20971;BME280;10644;48.834;10.088;2023-08-24T00:01:20;96922.50;;;26.34;51.82
20971;BME280;10644;48.834;10.088;2023-08-24T00:03:45;96918.88;;;26.35;51.93
20971;BME280;10644;48.834;10.088;2023-08-24T00:06:11;96920.88;;;26.33;52.14
20971;BME280;10644;48.834;10.088;2023-08-24T00:08:37;96920.06;;;26.32;51.75
20971;BME280;10644;48.834;10.088;2023-08-24T00:11:02;96907.44;;;26.28;51.72
20971;BME280;10644;48.834;10.088;2023-08-24T00:13:28;96904.28;;;26.10;52.12
20971;BME280;10644;48.834;10.088;2023-08-24T00:15:54;96911.47;;;26.16;51.68
20971;BME280;10644;48.834;10.088;2023-08-24T00:18:20;96906.72;;;26.11;52.04
20971;BME280;10644;48.834;10.088;2023-08-24T00:20:47;96901.94;;;26.15;51.93
20971;BME280;10644;48.834;10.088;2023-08-24T00:23:19;96894.09;;;26.07;52.15
20971;BME280;10644;48.834;10.088;2023-08-24T00:25:44;96905.44;;;26.07;52.04
20971;BME280;10644;48.834;10.088;2023-08-24T00:28:09;96888.66;;;26.08;51.95
20971;BME280;10644;48.834;10.088;2023-08-24T00:30:36;96911.22;;;26.03;52.03
20971;BME280;10644;48.834;10.088;2023-08-24T00:33:02;96900.72;;;25.95;51.92
20971;BME280;10644;48.834;10.088;2023-08-24T00:35:31;96905.63;;;25.90;52.06
20971;BME280;10644;48.834;10.088;2023-08-24T00:37:56;96898.47;;;25.92;52.24
20971;BME280;10644;48.834;10.088;2023-08-24T00:40:22;96897.09;;;25.96;52.28
20971;BME280;10644;48.834;10.088;2023-08-24T00:42:49;96898.78;;;25.97;52.30
20971;BME280;10644;48.834;10.088;2023-08-24T00:45:15;96902.75;;;25.77;52.78
20971;BME280;10644;48.834;10.088;2023-08-24T00:47:43;96877.72;;;25.66;52.81
20971;BME280;10644;48.834;10.088;2023-08-24T00:50:10;96882.91;;;25.74;52.49
20971;BME280;10644;48.834;10.088;2023-08-24T00:52:37;96873.88;;;25.77;52.45
20971;BME280;10644;48.834;10.088;2023-08-24T00:55:05;96876.47;;;25.85;52.18
20971;BME280;10644;48.834;10.088;2023-08-24T00:57:31;96886.16;;;25.84;52.37
20971;BME280;10644;48.834;10.088;2023-08-24T01:00:02;96877.13;;;25.87;52.24
20971;BME280;10644;48.834;10.088;2023-08-24T01:02:38;96882.88;;;25.90;52.11
20971;BME280;10644;48.834;10.088;2023-08-24T01:05:03;96880.06;;;25.92;51.87
20971;BME280;10644;48.834;10.088;2023-08-24T01:07:36;96876.44;;;25.93;51.89
20971;BME280;10644;48.834;10.088;2023-08-24T01:10:03;96879.22;;;25.99;52.00
20971;BME280;10644;48.834;10.088;2023-08-24T01:17:49;96878.03;;;25.71;52.16
20971;BME280;10644;48.834;10.088;2023-08-24T01:20:16;96871.50;;;25.59;52.09
20971;BME280;10644;48.834;10.088;2023-08-24T01:25:50;96857.88;;;25.64;51.93
20971;BME280;10644;48.834;10.088;2023-08-24T01:28:17;96862.44;;;25.70;51.72
20971;BME280;10644;48.834;10.088;2023-08-24T01:30:44;96852.63;;;25.56;52.44
20971;BME280;10644;48.834;10.088;2023-08-24T01:33:12;96854.63;;;25.54;52.73
20971;BME280;10644;48.834;10.088;2023-08-24T01:35:39;96845.66;;;25.40;52.77
20971;BME280;10644;48.834;10.088;2023-08-24T01:38:07;96848.28;;;25.40;52.89
20971;BME280;10644;48.834;10.088;2023-08-24T01:40:59;96838.56;;;25.49;52.68
20971;BME280;10644;48.834;10.088;2023-08-24T01:43:29;96837.31;;;25.37;52.98
20971;BME280;10644;48.834;10.088;2023-08-24T01:45:58;96834.19;;;25.33;53.08
20971;BME280;10644;48.834;10.088;2023-08-24T01:48:25;96832.53;;;25.40;53.16
20971;BME280;10644;48.834;10.088;2023-08-24T01:50:51;96824.03;;;25.38;52.79
20971;BME280;10644;48.834;10.088;2023-08-24T01:53:19;96828.59;;;25.44;52.21
20971;BME280;10644;48.834;10.088;2023-08-24T01:55:46;96837.09;;;25.46;52.37
20971;BME280;10644;48.834;10.088;2023-08-24T01:58:15;96837.16;;;25.30;52.86
20971;BME280;10644;48.834;10.088;2023-08-24T02:00:41;96839.97;;;25.29;53.39
20971;BME280;10644;48.834;10.088;2023-08-24T02:03:09;96843.22;;;25.31;52.91
20971;BME280;10644;48.834;10.088;2023-08-24T02:05:34;96830.09;;;25.31;53.07
20971;BME280;10644;48.834;10.088;2023-08-24T02:07:59;96834.84;;;25.35;52.81
20971;BME280;10644;48.834;10.088;2023-08-24T02:10:25;96855.16;;;25.41;53.07
20971;BME280;10644;48.834;10.088;2023-08-24T02:12:51;96831.28;;;25.28;53.24
20971;BME280;10644;48.834;10.088;2023-08-24T02:15:20;96825.84;;;25.30;53.09
20971;BME280;10644;48.834;10.088;2023-08-24T02:17:48;96826.66;;;25.30;53.15
20971;BME280;10644;48.834;10.088;2023-08-24T02:20:13;96820.94;;;25.27;53.20
20971;BME280;10644;48.834;10.088;2023-08-24T02:22:44;96813.09;;;25.11;53.38
20971;BME280;10644;48.834;10.088;2023-08-24T02:25:10;96825.53;;;25.17;53.73
20971;BME280;10644;48.834;10.088;2023-08-24T02:27:40;96821.09;;;25.17;53.71
20971;BME280;10644;48.834;10.088;2023-08-24T02:30:06;96819.47;;;25.16;53.58
20971;BME280;10644;48.834;10.088;2023-08-24T02:32:32;96828.50;;;25.06;53.74
20971;BME280;10644;48.834;10.088;2023-08-24T02:35:00;96829.84;;;25.02;53.88
20971;BME280;10644;48.834;10.088;2023-08-24T02:37:28;96843.25;;;25.15;53.64
20971;BME280;10644;48.834;10.088;2023-08-24T02:39:53;96828.03;;;25.02;53.71
20971;BME280;10644;48.834;10.088;2023-08-24T02:42:19;96838.19;;;25.05;53.66
20971;BME280;10644;48.834;10.088;2023-08-24T02:44:44;96838.50;;;25.02;53.62
20971;BME280;10644;48.834;10.088;2023-08-24T02:47:10;96832.78;;;24.99;53.60
20971;BME280;10644;48.834;10.088;2023-08-24T02:49:35;96846.69;;;25.07;53.72
20971;BME280;10644;48.834;10.088;2023-08-24T02:52:00;96843.63;;;24.96;53.85
20971;BME280;10644;48.834;10.088;2023-08-24T02:54:26;96849.53;;;24.90;54.00
20971;BME280;10644;48.834;10.088;2023-08-24T02:56:54;96855.09;;;24.87;54.06
20971;BME280;10644;48.834;10.088;2023-08-24T02:59:22;96855.94;;;24.71;54.46
20971;BME280;10644;48.834;10.088;2023-08-24T03:01:51;96856.13;;;24.78;54.11
20971;BME280;10644;48.834;10.088;2023-08-24T03:04:16;96841.38;;;24.69;54.18
20971;BME280;10644;48.834;10.088;2023-08-24T03:06:43;96844.63;;;24.71;54.30
20971;BME280;10644;48.834;10.088;2023-08-24T03:09:09;96844.16;;;24.75;54.32
20971;BME280;10644;48.834;10.088;2023-08-24T03:11:37;96830.22;;;24.75;54.14
20971;BME280;10644;48.834;10.088;2023-08-24T03:14:03;96848.88;;;24.88;53.79
20971;BME280;10644;48.834;10.088;2023-08-24T03:16:31;96827.91;;;24.80;53.94
20971;BME280;10644;48.834;10.088;2023-08-24T03:18:56;96834.13;;;24.87;54.14
20971;BME280;10644;48.834;10.088;2023-08-24T03:21:22;96830.50;;;24.88;54.12
20971;BME280;10644;48.834;10.088;2023-08-24T03:23:47;96834.28;;;24.93;53.87
20971;BME280;10644;48.834;10.088;2023-08-24T03:26:12;96831.53;;;24.79;53.90
20971;BME280;10644;48.834;10.088;2023-08-24T03:28:38;96821.38;;;24.76;54.05
20971;BME280;10644;48.834;10.088;2023-08-24T03:31:06;96816.47;;;24.73;54.13
20971;BME280;10644;48.834;10.088;2023-08-24T03:33:31;96817.75;;;24.77;54.47
20971;BME280;10644;48.834;10.088;2023-08-24T03:36:00;96810.22;;;24.82;54.25
20971;BME280;10644;48.834;10.088;2023-08-24T03:38:28;96822.16;;;24.84;54.14
20971;BME280;10644;48.834;10.088;2023-08-24T03:41:03;96816.28;;;24.82;53.85
20971;BME280;10644;48.834;10.088;2023-08-24T03:43:35;96811.72;;;24.60;54.54
20971;BME280;10644;48.834;10.088;2023-08-24T03:46:02;96820.88;;;24.48;55.06
20971;BME280;10644;48.834;10.088;2023-08-24T03:48:32;96829.06;;;24.29;55.29
20971;BME280;10644;48.834;10.088;2023-08-24T03:50:58;96814.16;;;24.30;55.26
20971;BME280;10644;48.834;10.088;2023-08-24T03:53:24;96826.28;;;24.31;55.29
20971;BME280;10644;48.834;10.088;2023-08-24T03:55:52;96810.25;;;24.34;55.41
20971;BME280;10644;48.834;10.088;2023-08-24T03:58:18;96807.97;;;24.39;54.98
20971;BME280;10644;48.834;10.088;2023-08-24T04:00:46;96810.56;;;24.47;54.96
20971;BME280;10644;48.834;10.088;2023-08-24T04:03:14;96805.50;;;24.37;54.75
20971;BME280;10644;48.834;10.088;2023-08-24T04:05:40;96811.88;;;24.35;55.05
20971;BME280;10644;48.834;10.088;2023-08-24T04:08:05;96807.78;;;24.16;55.31
20971;BME280;10644;48.834;10.088;2023-08-24T04:10:32;96808.09;;;24.21;55.12
20971;BME280;10644;48.834;10.088;2023-08-24T04:12:57;96809.91;;;24.21;55.33
20971;BME280;10644;48.834;10.088;2023-08-24T04:15:23;96802.69;;;24.31;54.79
20971;BME280;10644;48.834;10.088;2023-08-24T04:17:48;96800.41;;;24.36;54.73
20971;BME280;10644;48.834;10.088;2023-08-24T04:20:17;96796.16;;;24.35;54.64
20971;BME280;10644;48.834;10.088;2023-08-24T04:22:44;96800.09;;;24.31;54.71
20971;BME280;10644;48.834;10.088;2023-08-24T04:25:10;96797.31;;;24.16;55.44
20971;BME280;10644;48.834;10.088;2023-08-24T04:27:37;96800.91;;;24.15;55.57
20971;BME280;10644;48.834;10.088;2023-08-24T04:30:03;96788.75;;;23.90;55.85
20971;BME280;10644;48.834;10.088;2023-08-24T04:32:39;96790.56;;;23.98;55.67
20971;BME280;10644;48.834;10.088;2023-08-24T04:35:08;96789.28;;;24.02;55.71
20971;BME280;10644;48.834;10.088;2023-08-24T04:37:36;96790.28;;;24.17;55.11
20971;BME280;10644;48.834;10.088;2023-08-24T04:40:02;96778.00;;;24.09;55.20
20971;BME280;10644;48.834;10.088;2023-08-24T04:42:32;96779.13;;;23.99;55.75
20971;BME280;10644;48.834;10.088;2023-08-24T04:45:01;96783.72;;;24.05;55.49
20971;BME280;10644;48.834;10.088;2023-08-24T04:47:29;96786.34;;;24.13;55.63
20971;BME280;10644;48.834;10.088;2023-08-24T04:49:55;96780.75;;;24.16;55.74
20971;BME280;10644;48.834;10.088;2023-08-24T04:52:21;96775.22;;;24.11;55.66
20971;BME280;10644;48.834;10.088;2023-08-24T04:54:46;96772.09;;;24.15;55.31
20971;BME280;10644;48.834;10.088;2023-08-24T04:57:12;96764.88;;;24.17;55.29
20971;BME280;10644;48.834;10.088;2023-08-24T04:59:48;96768.66;;;24.07;55.73
20971;BME280;10644;48.834;10.088;2023-08-24T05:02:13;96769.47;;;24.15;55.80
20971;BME280;10644;48.834;10.088;2023-08-24T05:04:39;96776.66;;;24.29;55.44
20971;BME280;10644;48.834;10.088;2023-08-24T05:07:04;96771.09;;;24.40;55.31
20971;BME280;10644;48.834;10.088;2023-08-24T05:09:30;96768.31;;;24.50;55.23
20971;BME280;10644;48.834;10.088;2023-08-24T05:11:55;96769.63;;;24.62;55.06
20971;BME280;10644;48.834;10.088;2023-08-24T05:14:20;96754.25;;;24.67;54.85
20971;BME280;10644;48.834;10.088;2023-08-24T05:16:46;96749.59;;;24.77;54.74
20971;BME280;10644;48.834;10.088;2023-08-24T05:19:11;96740.09;;;24.76;53.73
20971;BME280;10644;48.834;10.088;2023-08-24T05:21:39;96744.34;;;24.77;53.93
20971;BME280;10644;48.834;10.088;2023-08-24T05:24:07;96749.97;;;24.58;54.25
20971;BME280;10644;48.834;10.088;2023-08-24T05:26:33;96746.06;;;24.46;55.04
20971;BME280;10644;48.834;10.088;2023-08-24T05:28:58;96744.75;;;24.42;55.21
20971;BME280;10644;48.834;10.088;2023-08-24T05:31:26;96743.94;;;24.41;55.30
20971;BME280;10644;48.834;10.088;2023-08-24T05:33:52;96750.13;;;24.48;55.08
20971;BME280;10644;48.834;10.088;2023-08-24T05:36:17;96736.91;;;24.34;55.19
20971;BME280;10644;48.834;10.088;2023-08-24T05:38:42;96731.00;;;24.40;55.12
20971;BME280;10644;48.834;10.088;2023-08-24T05:41:12;96737.19;;;24.47;55.10
20971;BME280;10644;48.834;10.088;2023-08-24T05:43:37;96734.41;;;24.40;56.70
20971;BME280;10644;48.834;10.088;2023-08-24T05:46:03;96737.22;;;24.39;55.46
20971;BME280;10644;48.834;10.088;2023-08-24T05:48:28;96741.44;;;24.56;55.20
20971;BME280;10644;48.834;10.088;2023-08-24T05:50:54;96741.41;;;24.72;55.00
20971;BME280;10644;48.834;10.088;2023-08-24T05:53:19;96728.56;;;24.93;54.54
20971;BME280;10644;48.834;10.088;2023-08-24T05:55:44;96729.69;;;25.06;53.85
20971;BME280;10644;48.834;10.088;2023-08-24T05:58:13;96725.72;;;25.10;53.90
20971;BME280;10644;48.834;10.088;2023-08-24T06:00:38;96727.44;;;25.34;53.31
20971;BME280;10644;48.834;10.088;2023-08-24T06:03:04;96725.78;;;25.41;53.04
20971;BME280;10644;48.834;10.088;2023-08-24T06:05:30;96711.09;;;25.54;52.94
20971;BME280;10644;48.834;10.088;2023-08-24T06:07:58;96710.34;;;25.46;53.12
20971;BME280;10644;48.834;10.088;2023-08-24T06:10:24;96707.97;;;25.51;52.65
20971;BME280;10644;48.834;10.088;2023-08-24T06:12:51;96689.97;;;25.48;52.36
20971;BME280;10644;48.834;10.088;2023-08-24T06:15:17;96689.56;;;25.59;52.14
20971;BME280;10644;48.834;10.088;2023-08-24T06:17:50;96705.44;;;25.65;52.15
20971;BME280;10644;48.834;10.088;2023-08-24T06:20:19;96690.50;;;25.43;52.07
20971;BME280;10644;48.834;10.088;2023-08-24T06:22:44;96713.97;;;25.37;52.50
20971;BME280;10644;48.834;10.088;2023-08-24T06:35:44;96679.94;;;25.51;52.43
20971;BME280;10644;48.834;10.088;2023-08-24T06:38:13;96679.53;;;25.40;52.84
20971;BME280;10644;48.834;10.088;2023-08-24T06:40:48;96680.63;;;25.45;52.72
20971;BME280;10644;48.834;10.088;2023-08-24T06:43:48;96676.28;;;25.60;52.40
20971;BME280;10644;48.834;10.088;2023-08-24T06:46:53;96700.81;;;25.67;53.05
20971;BME280;10644;48.834;10.088;2023-08-24T06:49:21;96686.75;;;25.83;52.23
20971;BME280;10644;48.834;10.088;2023-08-24T06:52:00;96678.06;;;25.82;52.03
20971;BME280;10644;48.834;10.088;2023-08-24T06:58:12;96679.41;;;26.01;51.43
20971;BME280;10644;48.834;10.088;2023-08-24T07:00:47;96688.75;;;26.03;51.57
20971;BME280;10644;48.834;10.088;2023-08-24T07:03:21;96687.38;;;25.93;51.65
20971;BME280;10644;48.834;10.088;2023-08-24T07:05:52;96677.38;;;25.88;52.07
20971;BME280;10644;48.834;10.088;2023-08-24T07:08:36;96676.00;;;26.15;51.58
20971;BME280;10644;48.834;10.088;2023-08-24T07:11:15;96691.47;;;26.47;50.89
20971;BME280;10644;48.834;10.088;2023-08-24T07:13:41;96694.53;;;26.50;51.12
20971;BME280;10644;48.834;10.088;2023-08-24T07:16:06;96678.56;;;26.52;50.72
20971;BME280;10644;48.834;10.088;2023-08-24T07:18:32;96709.63;;;26.71;50.43
20971;BME280;10644;48.834;10.088;2023-08-24T07:20:58;96701.63;;;26.79;49.90
20971;BME280;10644;48.834;10.088;2023-08-24T07:23:26;96712.25;;;27.00;49.39
20971;BME280;10644;48.834;10.088;2023-08-24T07:25:57;96713.50;;;27.04;49.40
20971;BME280;10644;48.834;10.088;2023-08-24T07:28:30;96700.34;;;27.04;49.25
20971;BME280;10644;48.834;10.088;2023-08-24T07:30:58;96701.59;;;27.08;49.36
20971;BME280;10644;48.834;10.088;2023-08-24T07:33:33;96717.47;;;27.29;49.15
20971;BME280;10644;48.834;10.088;2023-08-24T07:36:09;96705.16;;;27.29;49.44
20971;BME280;10644;48.834;10.088;2023-08-24T07:38:52;96714.91;;;27.50;49.28
20971;BME280;10644;48.834;10.088;2023-08-24T07:41:20;96740.19;;;27.65;48.98
20971;BME280;10644;48.834;10.088;2023-08-24T07:43:55;96742.44;;;27.83;48.76
20971;BME280;10644;48.834;10.088;2023-08-24T07:46:34;96718.97;;;27.52;48.77
20971;BME280;10644;48.834;10.088;2023-08-24T07:48:59;96730.06;;;27.69;48.83
20971;BME280;10644;48.834;10.088;2023-08-24T07:51:40;96728.19;;;27.63;48.85
20971;BME280;10644;48.834;10.088;2023-08-24T07:54:22;96724.28;;;27.38;49.32
20971;BME280;10644;48.834;10.088;2023-08-24T08:01:30;96714.09;;;27.35;49.76
20971;BME280;10644;48.834;10.088;2023-08-24T08:14:35;96713.81;;;27.44;49.98
20971;BME280;10644;48.834;10.088;2023-08-24T08:17:10;96716.03;;;27.62;48.39
20971;BME280;10644;48.834;10.088;2023-08-24T08:19:56;96699.78;;;27.58;48.74
20971;BME280;10644;48.834;10.088;2023-08-24T08:22:59;96697.47;;;27.70;48.93
20971;BME280;10644;48.834;10.088;2023-08-24T08:33:14;96691.31;;;27.63;49.29
20971;BME280;10644;48.834;10.088;2023-08-24T09:11:22;96691.69;;;30.63;42.96
20971;BME280;10644;48.834;10.088;2023-08-24T09:14:15;96690.47;;;30.72;42.63
20971;BME280;10644;48.834;10.088;2023-08-24T09:20:06;96689.47;;;30.60;42.69
20971;BME280;10644;48.834;10.088;2023-08-24T09:36:05;96672.47;;;31.88;41.17
20971;BME280;10644;48.834;10.088;2023-08-24T09:42:02;96678.34;;;32.21;40.07
20971;BME280;10644;48.834;10.088;2023-08-24T09:45:06;96677.50;;;32.20;39.86
20971;BME280;10644;48.834;10.088;2023-08-24T09:47:52;96690.50;;;32.53;39.70
20971;BME280;10644;48.834;10.088;2023-08-24T09:50:34;96670.53;;;32.26;39.58
20971;BME280;10644;48.834;10.088;2023-08-24T09:56:20;96656.84;;;32.29;38.88
20971;BME280;10644;48.834;10.088;2023-08-24T10:02:28;96646.69;;;32.86;39.32
20971;BME280;10644;48.834;10.088;2023-08-24T10:05:14;96639.81;;;32.97;37.86
20971;BME280;10644;48.834;10.088;2023-08-24T10:07:52;96626.16;;;32.75;38.92
20971;BME280;10644;48.834;10.088;2023-08-24T10:10:47;96608.78;;;32.37;39.47
20971;BME280;10644;48.834;10.088;2023-08-24T10:16:49;96602.47;;;32.74;39.26
20971;BME280;10644;48.834;10.088;2023-08-24T10:26:15;96608.16;;;33.43;39.37
20971;BME280;10644;48.834;10.088;2023-08-24T10:29:10;96592.66;;;33.40;38.47
20971;BME280;10644;48.834;10.088;2023-08-24T10:35:12;96570.69;;;34.08;38.23
20971;BME280;10644;48.834;10.088;2023-08-24T10:38:06;96559.94;;;34.15;37.84
20971;BME280;10644;48.834;10.088;2023-08-24T10:40:50;96566.44;;;34.19;38.66
20971;BME280;10644;48.834;10.088;2023-08-24T10:51:15;96546.28;;;34.00;37.78
20971;BME280;10644;48.834;10.088;2023-08-24T11:00:48;96531.16;;;34.86;37.23
20971;BME280;10644;48.834;10.088;2023-08-24T11:04:02;96511.03;;;35.23;37.21
20971;BME280;10644;48.834;10.088;2023-08-24T11:17:34;96508.59;;;34.03;38.38
20971;BME280;10644;48.834;10.088;2023-08-24T11:40:17;96483.41;;;35.95;34.63
20971;BME280;10644;48.834;10.088;2023-08-24T11:42:47;96486.53;;;36.08;34.49
20971;BME280;10644;48.834;10.088;2023-08-24T11:45:16;96477.31;;;35.78;34.57
20971;BME280;10644;48.834;10.088;2023-08-24T11:47:51;96466.69;;;35.83;34.14
20971;BME280;10644;48.834;10.088;2023-08-24T11:50:22;96473.09;;;35.82;34.92
20971;BME280;10644;48.834;10.088;2023-08-24T11:53:28;96463.06;;;35.89;34.77
20971;BME280;10644;48.834;10.088;2023-08-24T11:56:02;96467.09;;;35.75;33.86
20971;BME280;10644;48.834;10.088;2023-08-24T11:58:50;96451.94;;;35.97;33.75
20971;BME280;10644;48.834;10.088;2023-08-24T12:01:22;96445.16;;;36.27;33.09
20971;BME280;10644;48.834;10.088;2023-08-24T12:04:17;96456.97;;;36.31;33.39
20971;BME280;10644;48.834;10.088;2023-08-24T12:06:56;96444.28;;;36.65;33.45
20971;BME280;10644;48.834;10.088;2023-08-24T12:09:33;96436.88;;;36.72;32.80
20971;BME280;10644;48.834;10.088;2023-08-24T12:12:22;96436.47;;;36.85;33.41
20971;BME280;10644;48.834;10.088;2023-08-24T12:14:58;96438.75;;;36.50;33.85
20971;BME280;10644;48.834;10.088;2023-08-24T12:17:44;96434.69;;;36.04;33.54
20971;BME280;10644;48.834;10.088;2023-08-24T12:20:32;96424.34;;;36.51;33.08
20971;BME280;10644;48.834;10.088;2023-08-24T12:23:04;96431.00;;;37.01;33.04
20971;BME280;10644;48.834;10.088;2023-08-24T12:25:53;96422.69;;;37.24;32.61
20971;BME280;10644;48.834;10.088;2023-08-24T12:28:22;96429.00;;;37.45;31.63
20971;BME280;10644;48.834;10.088;2023-08-24T12:30:51;96425.78;;;37.11;31.82
20971;BME280;10644;48.834;10.088;2023-08-24T12:33:31;96422.72;;;37.03;32.36
20971;BME280;10644;48.834;10.088;2023-08-24T12:35:57;96414.75;;;37.08;32.17
20971;BME280;10644;48.834;10.088;2023-08-24T12:38:45;96411.81;;;37.36;31.47
20971;BME280;10644;48.834;10.088;2023-08-24T12:41:55;96406.16;;;37.69;32.46
20971;BME280;10644;48.834;10.088;2023-08-24T12:44:41;96396.97;;;37.55;31.56
20971;BME280;10644;48.834;10.088;2023-08-24T13:21:59;96341.63;;;38.27;31.50
20971;BME280;10644;48.834;10.088;2023-08-24T13:24:38;96346.47;;;38.30;31.30
20971;BME280;10644;48.834;10.088;2023-08-24T13:27:42;96348.06;;;38.31;31.29
20971;BME280;10644;48.834;10.088;2023-08-24T13:30:33;96333.66;;;38.42;31.67
20971;BME280;10644;48.834;10.088;2023-08-24T13:36:49;96321.94;;;37.86;32.31
20971;BME280;10644;48.834;10.088;2023-08-24T13:39:28;96306.63;;;37.67;32.97
20971;BME280;10644;48.834;10.088;2023-08-24T13:41:56;96323.28;;;37.94;32.45
20971;BME280;10644;48.834;10.088;2023-08-24T13:44:28;96319.88;;;37.52;32.68
20971;BME280;10644;48.834;10.088;2023-08-24T13:47:31;96313.03;;;37.71;32.43
20971;BME280;10644;48.834;10.088;2023-08-24T13:57:04;96297.69;;;38.18;32.06
20971;BME280;10644;48.834;10.088;2023-08-24T13:59:56;96288.06;;;38.12;32.48
20971;BME280;10644;48.834;10.088;2023-08-24T14:16:28;96280.84;;;38.37;32.21
20971;BME280;10644;48.834;10.088;2023-08-24T14:57:12;96231.97;;;37.19;34.46
20971;BME280;10644;48.834;10.088;2023-08-24T15:00:04;96234.72;;;37.34;33.93
20971;BME280;10644;48.834;10.088;2023-08-24T15:03:10;96251.31;;;37.36;33.86
20971;BME280;10644;48.834;10.088;2023-08-24T15:05:46;96243.28;;;37.36;34.28
20971;BME280;10644;48.834;10.088;2023-08-24T15:09:24;96238.47;;;37.38;34.22
20971;BME280;10644;48.834;10.088;2023-08-24T15:11:39;96221.03;;;37.20;34.17
20971;BME280;10644;48.834;10.088;2023-08-24T15:17:16;96239.94;;;37.09;34.98
20971;BME280;10644;48.834;10.088;2023-08-24T15:19:49;96249.97;;;36.92;34.95
20971;BME280;10644;48.834;10.088;2023-08-24T15:26:43;96270.47;;;36.81;35.43
20971;BME280;10644;48.834;10.088;2023-08-24T15:36:42;96313.63;;;36.95;35.74
20971;BME280;10644;48.834;10.088;2023-08-24T15:47:06;96331.81;;;36.40;40.83
20971;BME280;10644;48.834;10.088;2023-08-24T15:53:52;96334.88;;;35.08;42.67
20971;BME280;10644;48.834;10.088;2023-08-24T15:56:17;96357.22;;;35.40;42.16
20971;BME280;10644;48.834;10.088;2023-08-24T15:58:48;96356.88;;;35.53;42.10
20971;BME280;10644;48.834;10.088;2023-08-24T16:01:14;96353.22;;;35.59;42.31
20971;BME280;10644;48.834;10.088;2023-08-24T16:03:40;96352.66;;;35.57;42.87
20971;BME280;10644;48.834;10.088;2023-08-24T16:06:07;96383.00;;;35.34;42.32
20971;BME280;10644;48.834;10.088;2023-08-24T16:08:32;96412.22;;;34.80;40.58
20971;BME280;10644;48.834;10.088;2023-08-24T16:10:58;96403.56;;;33.94;40.88
20971;BME280;10644;48.834;10.088;2023-08-24T16:13:24;96366.34;;;33.25;42.35
20971;BME280;10644;48.834;10.088;2023-08-24T16:15:49;96338.09;;;32.66;42.66
20971;BME280;10644;48.834;10.088;2023-08-24T16:18:15;96350.09;;;32.69;43.07
20971;BME280;10644;48.834;10.088;2023-08-24T16:20:41;96354.88;;;32.78;42.89
20971;BME280;10644;48.834;10.088;2023-08-24T16:23:06;96367.16;;;32.50;42.97
20971;BME280;10644;48.834;10.088;2023-08-24T16:25:35;96364.63;;;32.25;43.38
20971;BME280;10644;48.834;10.088;2023-08-24T16:28:01;96380.22;;;31.43;44.64
20971;BME280;10644;48.834;10.088;2023-08-24T16:30:26;96409.22;;;31.38;44.88
20971;BME280;10644;48.834;10.088;2023-08-24T16:32:52;96396.56;;;30.91;45.03
20971;BME280;10644;48.834;10.088;2023-08-24T16:35:17;96420.00;;;31.19;44.32
20971;BME280;10644;48.834;10.088;2023-08-24T16:37:42;96426.81;;;31.33;43.78
20971;BME280;10644;48.834;10.088;2023-08-24T16:40:10;96439.72;;;31.47;44.11
20971;BME280;10644;48.834;10.088;2023-08-24T16:42:36;96438.38;;;31.14;44.80
20971;BME280;10644;48.834;10.088;2023-08-24T16:45:01;96443.81;;;30.94;45.14
20971;BME280;10644;48.834;10.088;2023-08-24T16:47:26;96458.28;;;30.92;45.63
20971;BME280;10644;48.834;10.088;2023-08-24T16:49:54;96463.47;;;31.05;45.38
20971;BME280;10644;48.834;10.088;2023-08-24T16:52:22;96458.72;;;31.13;45.64
20971;BME280;10644;48.834;10.088;2023-08-24T16:54:50;96469.31;;;31.13;45.60
20971;BME280;10644;48.834;10.088;2023-08-24T16:57:15;96488.16;;;30.99;46.23
20971;BME280;10644;48.834;10.088;2023-08-24T16:59:41;96474.09;;;30.98;46.00
20971;BME280;10644;48.834;10.088;2023-08-24T17:02:13;96469.97;;;30.78;46.41
20971;BME280;10644;48.834;10.088;2023-08-24T17:04:47;96439.56;;;30.87;46.14
20971;BME280;10644;48.834;10.088;2023-08-24T17:07:13;96419.53;;;30.97;45.79
20971;BME280;10644;48.834;10.088;2023-08-24T17:09:40;96419.84;;;30.83;45.86
20971;BME280;10644;48.834;10.088;2023-08-24T17:12:06;96428.00;;;30.81;45.26
20971;BME280;10644;48.834;10.088;2023-08-24T17:14:31;96443.97;;;30.68;45.51
20971;BME280;10644;48.834;10.088;2023-08-24T17:16:57;96428.66;;;30.33;45.63
20971;BME280;10644;48.834;10.088;2023-08-24T17:19:22;96410.97;;;30.64;44.63
20971;BME280;10644;48.834;10.088;2023-08-24T17:21:47;96401.16;;;30.78;44.29
20971;BME280;10644;48.834;10.088;2023-08-24T17:24:13;96363.19;;;30.90;43.91
20971;BME280;10644;48.834;10.088;2023-08-24T17:26:41;96365.50;;;31.05;43.48
20971;BME280;10644;48.834;10.088;2023-08-24T17:29:06;96356.28;;;31.14;43.32
20971;BME280;10644;48.834;10.088;2023-08-24T17:31:32;96346.97;;;31.29;43.33
20971;BME280;10644;48.834;10.088;2023-08-24T17:34:00;96333.88;;;31.34;42.80
20971;BME280;10644;48.834;10.088;2023-08-24T17:36:26;96329.22;;;31.30;43.02
20971;BME280;10644;48.834;10.088;2023-08-24T17:38:51;96328.06;;;31.26;43.52
20971;BME280;10644;48.834;10.088;2023-08-24T17:41:17;96320.34;;;31.00;43.73
20971;BME280;10644;48.834;10.088;2023-08-24T17:43:45;96302.78;;;31.05;43.76
20971;BME280;10644;48.834;10.088;2023-08-24T17:46:11;96302.00;;;31.23;43.02
20971;BME280;10644;48.834;10.088;2023-08-24T17:48:36;96292.28;;;31.35;42.90
20971;BME280;10644;48.834;10.088;2023-08-24T17:51:02;96278.75;;;31.43;42.54
20971;BME280;10644;48.834;10.088;2023-08-24T17:53:30;96266.09;;;31.45;41.98
20971;BME280;10644;48.834;10.088;2023-08-24T17:55:58;96251.97;;;31.33;41.45
20971;BME280;10644;48.834;10.088;2023-08-24T17:58:23;96231.56;;;30.79;41.77
20971;BME280;10644;48.834;10.088;2023-08-24T18:00:49;96214.38;;;30.15;43.11
20971;BME280;10644;48.834;10.088;2023-08-24T18:03:15;96203.09;;;29.95;44.13